• Join FlightAware (Why Join?)
  • Login
  • US Flag GB Flag 
12:18 EDT


 

Airport Tracker/Info


-or-


 

Live Flight TrackerFlight Track Log ✈ EJA829P ✈ 01-Apr-2014 ✈ KAPF - KSRQ

Flight Track Log - Related Links

Times and Time Zones

All times are in EDT time to prevent confusion due to time zone crossing. See the EJA829P flight status page for this flight to view local times or setup timezone preferences in your user account.

Time Position Orientation Groundspeed Altitude Reporting Facility
EDT Latitude Longitude Course Direction KTS MPH feet Rate Location/Type
14:04 26.5066 -81.9057 340° North  Level FlightAware Approximate
14:05 26.5664 -81.9296 340° North  Level FlightAware Approximate
14:06 26.6262 -81.9535 340° North  Level FlightAware Approximate
14:07 26.6860 -81.9774 340° North  Level FlightAware Approximate
14:08 26.7457 -82.0013 340° North  Level FlightAware Approximate
14:09 26.8055 -82.0253 340° North  Level FlightAware Approximate
14:09 26.9000 -82.1833 307° West 279 321 8,000  Level Tampa TRACON
14:09 26.9167 -82.1833 360° North 278 320 8,000  Level Tampa TRACON
14:10 26.8653 -82.0493 340° North  Level FlightAware Approximate
14:10 26.9833 -82.2333 326° Northwest 278 320 8,000  Level Tampa TRACON
14:11 26.9251 -82.0733 340° North  Level FlightAware Approximate
14:11 27.0333 -82.2833 318° Northwest 277 319 8,000  Level Tampa TRACON
14:12 26.9776 -82.1109 318° Northwest  Level FlightAware Approximate
14:12 27.1000 -82.3333 326° Northwest 229 264 7,900  Level Tampa TRACON
14:13 27.0250 -82.1583 318° Northwest  Level FlightAware Approximate
14:13 27.1500 -82.3667 329° Northwest 228 262 6,600  Level Tampa TRACON
14:14 27.0680 -82.2103 307° West  Level FlightAware Approximate
14:14 27.2000 -82.4000 329° Northwest 232 267 4,600  Level Tampa TRACON
14:15 27.2667 -82.4167 347° North 218 251 3,000 -1,320 Descending Tampa TRACON
14:16 27.3167 -82.4667 318° Northwest 206 237 2,000 -960 Descending Tampa TRACON
14:17 27.3500 -82.5000 318° Northwest 183 211 1,100 -780 Descending Tampa TRACON
14:19 27.3833 -82.5333 318° Northwest 122 140 400 -660 Descending Tampa TRACON
14:21 27.3833 -82.5500 310° West  Level FlightAware Approximate
14:28 27.3954 -82.5544 310° West  Level Estimated